Time;durP1;ratioP1;P1;durP2;ratioP2;P2;SDS_P1;SDS_P2;PMS_P1;PMS_P2;Temp;Humidity;BMP_temperature;BMP_pressure;BME280_temperature;BME280_humidity;BME280_pressure;Samples;Min_cycle;Max_cycle;Signal;HPM_P1;HPM_P2
2022/04/15 00:05:36;;;;;;;13.27;9.70;;;10.50;99.90;;;;;;10332145;28;20236;-81
2022/04/15 00:10:58;;;;;;;11.10;9.33;;;10.50;99.90;;;;;;10373553;28;20213;-81
2022/04/15 00:16:23;;;;;;;17.70;9.93;;;10.50;99.90;;;;;;10404912;28;20242;-80
2022/04/15 00:21:45;;;;;;;15.57;10.00;;;10.50;99.90;;;;;;10373918;28;20450;-80
2022/04/15 00:27:07;;;;;;;11.87;9.43;;;10.50;99.90;;;;;;10347469;28;20197;-81
2022/04/15 00:32:28;;;;;;;15.03;9.40;;;10.50;99.90;;;;;;10347193;28;20208;-81
2022/04/15 00:37:50;;;;;;;14.07;10.37;;;10.50;99.90;;;;;;10333276;28;20239;-81
2022/04/15 00:43:11;;;;;;;11.93;9.57;;;10.50;99.90;;;;;;10324546;28;20555;-80
2022/04/15 00:48:38;;;;;;;13.50;10.43;;;10.40;99.90;;;;;;10306789;28;20197;-81
2022/04/15 00:54:03;;;;;;;12.90;9.60;;;10.40;99.90;;;;;;10318519;28;20370;-81
2022/04/15 00:59:26;;;;;;;14.40;9.60;;;10.40;99.90;;;;;;10329644;28;20193;-80
2022/04/15 01:04:51;;;;;;;11.90;8.90;;;10.40;99.90;;;;;;10329496;28;20585;-81
2022/04/15 01:10:14;;;;;;;13.40;8.93;;;10.40;99.90;;;;;;10349069;28;20657;-81
2022/04/15 01:15:36;;;;;;;10.07;7.53;;;10.40;99.90;;;;;;10385897;28;20496;-81
2022/04/15 01:21:00;;;;;;;11.27;8.83;;;10.40;99.90;;;;;;10378027;28;20380;-80
2022/04/15 01:26:21;;;;;;;16.37;10.13;;;10.40;99.90;;;;;;10344857;28;20240;-82
2022/04/15 01:31:43;;;;;;;14.87;10.47;;;10.40;99.90;;;;;;10328563;28;20198;-81
2022/04/15 01:37:04;;;;;;;14.18;10.82;;;10.40;99.90;;;;;;10344538;28;20234;-81
2022/04/15 01:42:26;;;;;;;16.23;11.13;;;10.50;99.90;;;;;;10328315;28;20229;-81
2022/04/15 01:47:47;;;;;;;13.93;10.90;;;10.50;99.90;;;;;;10317495;28;20208;-80
2022/04/15 01:53:09;;;;;;;14.93;11.93;;;10.50;99.90;;;;;;10308785;28;20201;-80
2022/04/15 01:58:30;;;;;;;14.55;11.50;;;10.40;99.90;;;;;;10327601;28;20201;-80
2022/04/15 02:03:53;;;;;;;17.48;13.68;;;10.40;99.90;;;;;;10340480;28;20256;-81
2022/04/15 02:09:14;;;;;;;19.33;14.57;;;10.40;99.90;;;;;;10357749;28;20194;-79
2022/04/15 02:14:36;;;;;;;17.40;14.13;;;10.40;99.90;;;;;;10382894;28;20200;-81
2022/04/15 02:19:57;;;;;;;18.30;13.82;;;10.40;99.90;;;;;;10337055;28;20202;-81
2022/04/15 02:25:18;;;;;;;15.35;12.73;;;10.30;99.90;;;;;;10326310;28;20424;-82
2022/04/15 02:30:40;;;;;;;17.40;13.85;;;10.40;99.90;;;;;;10326404;28;20248;-80
2022/04/15 02:36:01;;;;;;;19.92;14.45;;;10.40;99.90;;;;;;10342144;28;20303;-80
2022/04/15 02:41:22;;;;;;;18.42;14.20;;;10.40;99.90;;;;;;10336116;28;20227;-82
2022/04/15 02:46:44;;;;;;;17.40;14.32;;;10.40;99.90;;;;;;10339828;28;20205;-80
2022/04/15 02:52:06;;;;;;;19.75;15.52;;;10.40;99.90;;;;;;10320511;28;20201;-80
2022/04/15 02:57:28;;;;;;;21.27;15.15;;;10.40;99.90;;;;;;10301363;28;20193;-80
2022/04/15 03:02:49;;;;;;;25.27;18.27;;;10.40;99.90;;;;;;10300272;28;20473;-80
2022/04/15 03:08:11;;;;;;;20.90;16.73;;;10.40;99.90;;;;;;10300609;28;20308;-80
2022/04/15 03:13:32;;;;;;;19.33;15.67;;;10.40;99.90;;;;;;10362418;28;20483;-80
2022/04/15 03:18:56;;;;;;;21.45;16.23;;;10.40;99.90;;;;;;10386751;28;20204;-81
2022/04/15 03:24:17;;;;;;;19.02;15.57;;;10.40;99.90;;;;;;10324763;28;20233;-80
2022/04/15 03:29:39;;;;;;;21.83;16.75;;;10.40;99.90;;;;;;10325342;28;20511;-80
2022/04/15 03:35:00;;;;;;;21.50;16.63;;;10.40;99.90;;;;;;10353364;28;20284;-81
2022/04/15 03:40:22;;;;;;;24.48;16.17;;;10.40;99.90;;;;;;10364397;28;20213;-81
2022/04/15 03:45:43;;;;;;;21.33;16.23;;;10.50;99.90;;;;;;10340406;28;20519;-81
2022/04/15 03:51:04;;;;;;;22.38;15.93;;;10.50;99.90;;;;;;10354629;28;20188;-80
2022/04/15 03:56:26;;;;;;;22.93;18.63;;;10.40;99.90;;;;;;10324226;28;20247;-80
2022/04/15 04:01:47;;;;;;;24.17;17.98;;;10.50;99.90;;;;;;10323533;28;20193;-81
2022/04/15 04:07:10;;;;;;;24.30;18.33;;;10.40;99.90;;;;;;10337230;28;20217;-82
2022/04/15 04:12:33;;;;;;;25.93;18.17;;;10.50;99.90;;;;;;10375595;28;20232;-80
2022/04/15 04:17:55;;;;;;;22.63;18.00;;;10.50;99.90;;;;;;10363884;28;20207;-80
2022/04/15 04:23:17;;;;;;;25.98;18.27;;;10.50;99.90;;;;;;10310746;28;20218;-82
2022/04/15 04:28:38;;;;;;;21.95;16.85;;;10.40;99.90;;;;;;10287734;28;20447;-81
2022/04/15 04:34:00;;;;;;;21.93;16.70;;;10.40;99.90;;;;;;10303677;28;20234;-79
2022/04/15 04:39:25;;;;;;;21.30;16.90;;;10.50;99.90;;;;;;10316611;28;20516;-80
2022/04/15 04:44:48;;;;;;;20.75;15.45;;;10.40;99.90;;;;;;10306218;28;20226;-79
2022/04/15 04:50:10;;;;;;;15.95;13.00;;;10.40;99.90;;;;;;10306474;28;20280;-79
2022/04/15 04:55:31;;;;;;;13.20;11.37;;;10.40;99.90;;;;;;10346402;28;20589;-79
2022/04/15 05:00:52;;;;;;;18.87;13.27;;;10.40;99.90;;;;;;10329513;28;20196;-80
2022/04/15 05:06:14;;;;;;;17.43;12.80;;;10.30;99.90;;;;;;10345860;28;20244;-79
2022/04/15 05:11:35;;;;;;;17.10;11.93;;;10.40;99.90;;;;;;10346903;28;20242;-80
2022/04/15 05:16:57;;;;;;;14.73;11.53;;;10.30;99.90;;;;;;10386118;28;20487;-80
2022/04/15 05:22:18;;;;;;;15.17;11.80;;;10.40;99.90;;;;;;10366437;28;20508;-79
2022/04/15 05:27:40;;;;;;;14.10;11.83;;;10.30;99.90;;;;;;10331704;28;20202;-80
2022/04/15 05:33:01;;;;;;;16.57;12.07;;;10.30;99.90;;;;;;10328665;28;20204;-79
2022/04/15 05:38:22;;;;;;;16.43;12.63;;;10.30;99.90;;;;;;10358096;28;20239;-81
2022/04/15 05:43:44;;;;;;;51.80;30.67;;;10.30;99.90;;;;;;10344229;28;20242;-80
2022/04/15 05:49:13;;;;;;;86.00;55.60;;;10.30;99.90;;;;;;10327436;28;20192;-79
2022/04/15 05:54:34;;;;;;;123.97;71.13;;;10.40;99.90;;;;;;10334499;28;20278;-80
2022/04/15 05:59:55;;;;;;;206.23;117.77;;;10.40;99.90;;;;;;10340808;28;20212;-80
2022/04/15 06:05:17;;;;;;;150.77;87.17;;;10.40;99.90;;;;;;10327150;28;20230;-79
2022/04/15 06:10:39;;;;;;;84.30;51.53;;;10.40;99.90;;;;;;10364113;28;20192;-80
2022/04/15 06:16:00;;;;;;;28.50;23.80;;;10.50;99.90;;;;;;10397225;28;20204;-79
2022/04/15 06:21:22;;;;;;;43.40;30.97;;;10.50;99.90;;;;;;10368196;28;20188;-80
2022/04/15 06:26:43;;;;;;;15.20;12.47;;;10.60;99.90;;;;;;10356701;28;20247;-81
2022/04/15 06:32:07;;;;;;;8.00;6.80;;;10.50;99.90;;;;;;10355819;28;20437;-80
2022/04/15 06:37:29;;;;;;;9.00;5.90;;;10.60;99.90;;;;;;10342789;28;20286;-80
2022/04/15 06:42:50;;;;;;;7.37;5.47;;;10.60;99.90;;;;;;10307367;28;20218;-81
2022/04/15 06:48:14;;;;;;;6.80;5.67;;;10.60;99.90;;;;;;10320419;28;20199;-80
2022/04/15 06:53:35;;;;;;;5.60;5.10;;;10.50;99.90;;;;;;10342076;28;20385;-79
2022/04/15 06:58:57;;;;;;;5.37;4.43;;;10.50;99.90;;;;;;10356331;28;20495;-80
2022/04/15 07:04:18;;;;;;;4.30;3.90;;;10.50;99.90;;;;;;10356141;28;20224;-80
2022/04/15 07:09:40;;;;;;;6.00;4.60;;;10.40;99.90;;;;;;10341860;28;20190;-80
2022/04/15 07:15:01;;;;;;;5.10;4.60;;;10.40;99.90;;;;;;10341293;28;20421;-81
2022/04/15 07:20:24;;;;;;;4.30;3.90;;;10.40;99.90;;;;;;10278700;28;20346;-79
2022/04/15 07:25:45;;;;;;;7.07;6.07;;;10.40;99.90;;;;;;10310952;28;20758;-79
2022/04/15 07:31:07;;;;;;;9.87;5.93;;;10.40;99.90;;;;;;10295793;28;20276;-79
2022/04/15 07:41:56;;;;;;;7.03;5.57;;;10.50;99.90;;;;;;10299421;28;20260;-79
2022/04/15 07:47:18;;;;;;;5.80;4.27;;;10.50;99.90;;;;;;10267765;29;20292;-78
2022/04/15 07:52:44;;;;;;;5.67;4.23;;;10.60;99.90;;;;;;10321907;28;20209;-79
2022/04/15 07:58:05;;;;;;;6.47;4.97;;;10.70;99.90;;;;;;10307964;28;20503;-79
2022/04/15 08:03:27;;;;;;;8.00;5.53;;;10.70;99.90;;;;;;10314690;28;20229;-78
2022/04/15 08:08:50;;;;;;;8.47;5.40;;;10.70;99.90;;;;;;10330377;28;20433;-78
2022/04/15 08:14:11;;;;;;;9.27;6.30;;;10.80;99.90;;;;;;10320657;28;20202;-79
2022/04/15 08:19:32;;;;;;;11.00;6.70;;;10.80;99.90;;;;;;10314058;28;20213;-80
2022/04/15 08:24:54;;;;;;;15.93;8.40;;;10.70;99.90;;;;;;10296150;28;20260;-80
2022/04/15 08:30:16;;;;;;;9.90;6.53;;;10.80;99.90;;;;;;10324095;28;20209;-80
2022/04/15 08:35:39;;;;;;;32.40;15.23;;;10.90;99.90;;;;;;10331042;28;20255;-82
2022/04/15 08:41:01;;;;;;;50.03;23.47;;;10.80;99.90;;;;;;10301060;28;20218;-80
2022/04/15 08:46:24;;;;;;;14.57;8.60;;;10.80;99.90;;;;;;10331225;28;20296;-80
2022/04/15 08:51:52;;;;;;;14.43;9.73;;;10.80;99.90;;;;;;10330982;28;20229;-83
2022/04/15 08:57:13;;;;;;;13.13;8.70;;;10.70;99.90;;;;;;10330428;28;20247;-80
2022/04/15 09:02:37;;;;;;;10.30;7.57;;;10.50;99.90;;;;;;10330443;28;20212;-82
2022/04/15 09:08:04;;;;;;;14.43;9.83;;;10.50;99.90;;;;;;10328014;28;20400;-84
2022/04/15 09:13:33;;;;;;;10.70;7.37;;;10.50;99.90;;;;;;10331051;28;20206;-82
2022/04/15 09:18:55;;;;;;;8.83;5.90;;;10.50;99.90;;;;;;10327060;28;20205;-81
2022/04/15 09:24:17;;;;;;;6.80;6.10;;;10.40;99.90;;;;;;10349411;28;20251;-84
2022/04/15 09:29:40;;;;;;;7.13;5.77;;;10.50;99.90;;;;;;10331096;28;20195;-84
2022/04/15 09:35:06;;;;;;;7.53;5.37;;;10.30;99.90;;;;;;10353951;28;20319;-84
2022/04/15 09:40:28;;;;;;;7.07;5.77;;;10.30;99.90;;;;;;10325990;28;20201;-85
2022/04/15 09:45:50;;;;;;;10.83;7.70;;;10.20;99.90;;;;;;10320403;28;20236;-79
2022/04/15 09:51:19;;;;;;;10.67;7.50;;;10.00;99.90;;;;;;10352437;28;20253;-83
2022/04/15 09:56:43;;;;;;;16.37;9.07;;;9.60;99.90;;;;;;10332321;28;20226;-82
2022/04/15 10:02:09;;;;;;;19.63;11.43;;;9.40;99.90;;;;;;10346220;28;20205;-79
2022/04/15 10:07:34;;;;;;;33.40;18.57;;;9.10;99.90;;;;;;10337744;28;20234;-78
2022/04/15 10:13:00;;;;;;;51.10;28.00;;;9.00;99.90;;;;;;10347446;28;20202;-82
2022/04/15 10:18:24;;;;;;;35.70;22.60;;;8.80;99.90;;;;;;10346785;28;20192;-82
2022/04/15 10:23:46;;;;;;;62.47;44.17;;;8.70;99.90;;;;;;10352981;28;20246;-83
2022/04/15 10:29:09;;;;;;;70.93;45.53;;;8.60;99.90;;;;;;10317212;28;20226;-79
2022/04/15 10:34:45;;;;;;;60.60;33.53;;;8.60;99.90;;;;;;10319994;28;20239;-79
2022/04/15 10:40:26;;;;;;;68.13;37.73;;;8.60;99.90;;;;;;10343893;28;20190;-83
2022/04/15 10:45:48;;;;;;;65.57;34.83;;;8.50;99.90;;;;;;10337706;28;20259;-81
2022/04/15 10:51:24;;;;;;;42.60;24.50;;;8.50;99.90;;;;;;10306391;28;20230;-83
2022/04/15 10:57:14;;;;;;;29.97;18.00;;;8.50;99.90;;;;;;10322180;28;20203;-84
2022/04/15 11:02:50;;;;;;;16.77;11.33;;;8.40;99.90;;;;;;10262366;29;20214;-81
2022/04/15 11:08:14;;;;;;;14.03;9.27;;;8.40;99.90;;;;;;10348666;28;20204;-80
2022/04/15 11:13:39;;;;;;;14.00;9.70;;;8.20;99.90;;;;;;10338705;28;20275;-81
2022/04/15 11:19:01;;;;;;;16.03;9.30;;;8.20;99.90;;;;;;10307110;28;20462;-78
2022/04/15 11:24:32;;;;;;;12.07;8.30;;;8.10;99.90;;;;;;10335189;28;20241;-81
2022/04/15 11:29:56;;;;;;;14.73;7.60;;;7.70;99.90;;;;;;10331796;28;20239;-79
2022/04/15 11:35:32;;;;;;;9.27;6.57;;;7.50;99.90;;;;;;10331704;28;20232;-80
2022/04/15 11:40:55;;;;;;;11.17;6.40;;;7.50;99.90;;;;;;10322641;28;20233;-78
2022/04/15 11:46:16;;;;;;;9.30;7.23;;;7.50;99.90;;;;;;10276951;28;20799;-78
2022/04/15 11:51:38;;;;;;;16.37;8.93;;;7.60;99.90;;;;;;10322358;28;20189;-78
2022/04/15 11:57:03;;;;;;;16.03;10.50;;;7.40;99.90;;;;;;10325724;28;20200;-79
2022/04/15 12:02:25;;;;;;;15.93;10.60;;;7.20;99.90;;;;;;10346816;28;20271;-77
2022/04/15 12:07:46;;;;;;;16.63;9.93;;;7.10;99.90;;;;;;10313351;28;20232;-78
2022/04/15 12:13:08;;;;;;;16.63;9.10;;;7.00;99.90;;;;;;10344173;28;20208;-79
2022/04/15 12:18:30;;;;;;;25.90;11.83;;;6.90;99.90;;;;;;10324457;28;20674;-79
2022/04/15 12:24:20;;;;;;;14.57;8.40;;;6.90;99.90;;;;;;10345412;28;20223;-79
2022/04/15 12:29:51;;;;;;;20.50;10.00;;;6.90;99.90;;;;;;10316210;28;20200;-80
2022/04/15 12:35:13;;;;;;;22.57;10.40;;;7.00;99.90;;;;;;10323772;28;20287;-80
2022/04/15 12:40:34;;;;;;;36.30;13.90;;;7.00;99.90;;;;;;10323263;28;20208;-79
2022/04/15 12:45:58;;;;;;;26.50;12.57;;;7.00;99.90;;;;;;10342236;28;20228;-80
2022/04/15 12:51:20;;;;;;;17.13;10.87;;;7.10;99.90;;;;;;10322759;28;20197;-80
2022/04/15 12:56:55;;;;;;;20.73;11.50;;;6.90;99.90;;;;;;10347246;28;20212;-79
2022/04/15 13:02:16;;;;;;;29.60;15.97;;;6.90;99.90;;;;;;10326813;28;20271;-79
2022/04/15 13:07:38;;;;;;;22.50;13.53;;;6.70;99.90;;;;;;10351168;28;20220;-77
2022/04/15 13:13:00;;;;;;;24.33;11.87;;;6.60;99.90;;;;;;10341062;28;20225;-78
2022/04/15 13:18:21;;;;;;;22.77;12.67;;;6.50;99.90;;;;;;10310059;28;20200;-79
2022/04/15 13:23:42;;;;;;;17.40;10.83;;;6.40;99.90;;;;;;10347046;28;20227;-79
2022/04/15 13:29:04;;;;;;;15.63;8.57;;;6.30;99.90;;;;;;10330943;28;20209;-78
2022/04/15 13:34:25;;;;;;;9.43;7.10;;;6.20;99.90;;;;;;10329168;28;20300;-78
2022/04/15 13:39:47;;;;;;;12.13;7.97;;;6.20;99.90;;;;;;10350488;28;20255;-78
2022/04/15 13:45:10;;;;;;;12.03;7.23;;;6.20;99.90;;;;;;10337110;28;20246;-78
2022/04/15 13:50:31;;;;;;;10.17;7.87;;;6.20;99.90;;;;;;10322993;28;20202;-79
2022/04/15 14:01:33;;;;;;;11.63;8.10;;;6.20;99.90;;;;;;10332109;28;20589;-78
2022/04/15 14:06:55;;;;;;;13.67;8.20;;;6.10;99.90;;;;;;10344026;28;20440;-78
2022/04/15 14:12:16;;;;;;;10.07;6.93;;;6.20;99.90;;;;;;10306352;28;20195;-80
2022/04/15 14:17:39;;;;;;;9.60;6.53;;;6.20;99.90;;;;;;10314824;28;20218;-79
2022/04/15 14:23:01;;;;;;;13.47;6.13;;;6.20;99.90;;;;;;10371152;28;20253;-80
2022/04/15 14:28:24;;;;;;;10.10;5.63;;;6.40;99.90;;;;;;10351672;28;20392;-79
2022/04/15 14:33:46;;;;;;;6.37;4.33;;;6.60;99.90;;;;;;10279072;28;20359;-79
2022/04/15 14:39:07;;;;;;;6.13;4.30;;;6.70;99.90;;;;;;10286307;28;20239;-80
2022/04/15 14:44:28;;;;;;;6.77;4.03;;;6.60;99.90;;;;;;10272873;29;20405;-80
2022/04/15 14:49:52;;;;;;;9.53;5.70;;;6.40;99.90;;;;;;10289551;28;20246;-79
2022/04/15 14:55:14;;;;;;;12.13;5.47;;;6.30;99.90;;;;;;10275042;28;20624;-81
2022/04/15 15:00:37;;;;;;;16.60;5.93;;;6.20;99.90;;;;;;10299332;28;20320;-80
2022/04/15 15:05:58;;;;;;;11.70;7.20;;;6.00;99.90;;;;;;10287853;28;20285;-80
2022/04/15 15:11:20;;;;;;;12.33;7.07;;;6.00;99.90;;;;;;10327156;28;20217;-79
2022/04/15 15:16:41;;;;;;;17.83;7.63;;;6.00;99.90;;;;;;10352926;28;20203;-79
2022/04/15 15:22:03;;;;;;;14.10;6.33;;;6.00;99.90;;;;;;10345437;28;20202;-79
2022/04/15 15:33:05;;;;;;;10.63;5.60;;;5.90;99.90;;;;;;10274219;29;20247;-79
2022/04/15 15:38:26;;;;;;;8.40;5.93;;;5.90;99.90;;;;;;10273614;28;20422;-79
2022/04/15 15:43:47;;;;;;;10.37;4.90;;;5.80;99.90;;;;;;10260318;29;20227;-79
2022/04/15 15:49:09;;;;;;;17.57;9.73;;;5.80;99.90;;;;;;10274899;29;20198;-78
2022/04/15 15:54:30;;;;;;;10.00;5.60;;;5.80;99.90;;;;;;10289613;28;20392;-79
2022/04/15 15:59:51;;;;;;;12.30;5.80;;;5.80;99.90;;;;;;10295113;28;20221;-79
2022/04/15 16:05:14;;;;;;;13.60;6.77;;;5.70;99.90;;;;;;10299716;28;20230;-79
2022/04/15 16:10:36;;;;;;;15.63;7.70;;;5.60;99.90;;;;;;10322336;28;20190;-79
2022/04/15 16:15:57;;;;;;;12.33;6.47;;;5.50;99.90;;;;;;10354584;28;20395;-79
2022/04/15 16:21:19;;;;;;;14.73;5.40;;;5.30;99.90;;;;;;10354204;28;20207;-79
2022/04/15 16:26:41;;;;;;;18.30;7.50;;;5.20;99.90;;;;;;10377226;28;20256;-79
2022/04/15 16:32:03;;;;;;;13.83;5.97;;;5.20;99.90;;;;;;10306316;28;20191;-79
2022/04/15 16:37:24;;;;;;;12.93;6.13;;;5.20;99.90;;;;;;10321295;28;20236;-80
2022/04/15 16:42:45;;;;;;;19.70;7.90;;;5.30;99.90;;;;;;10320622;28;20190;-79
2022/04/15 16:48:07;;;;;;;14.33;6.47;;;5.30;99.90;;;;;;10336403;28;20271;-79
2022/04/15 16:53:28;;;;;;;20.80;7.37;;;5.20;99.90;;;;;;10319838;28;20266;-80
2022/04/15 16:58:52;;;;;;;12.53;4.77;;;5.20;99.90;;;;;;10335465;28;20504;-79
2022/04/15 17:04:14;;;;;;;6.23;2.80;;;5.10;99.90;;;;;;10335724;28;20219;-80
2022/04/15 17:09:35;;;;;;;8.53;4.43;;;5.10;99.90;;;;;;10335130;28;20214;-78
2022/04/15 17:14:57;;;;;;;9.13;3.73;;;5.10;99.90;;;;;;10279481;28;20229;-79
2022/04/15 17:20:18;;;;;;;4.67;2.53;;;5.00;99.90;;;;;;10330292;28;20273;-79
2022/04/15 17:25:41;;;;;;;7.03;2.83;;;5.00;99.90;;;;;;10345409;28;20232;-79
2022/04/15 17:31:02;;;;;;;6.90;3.70;;;5.00;99.90;;;;;;10312654;28;20222;-79
2022/04/15 17:36:23;;;;;;;8.57;3.40;;;5.00;99.90;;;;;;10317102;28;20231;-80
2022/04/15 17:41:44;;;;;;;8.93;3.27;;;5.00;99.90;;;;;;10304590;28;20557;-79
2022/04/15 17:47:06;;;;;;;9.13;3.50;;;4.90;99.90;;;;;;10317980;28;20228;-79
2022/04/15 17:52:27;;;;;;;16.77;6.30;;;4.90;99.90;;;;;;10303901;28;20228;-79
2022/04/15 17:57:49;;;;;;;9.00;3.73;;;4.80;99.90;;;;;;10317354;28;20512;-79
2022/04/15 18:03:10;;;;;;;10.20;4.43;;;4.70;99.90;;;;;;10333504;28;20558;-80
2022/04/15 18:08:32;;;;;;;9.50;3.83;;;4.60;99.90;;;;;;10303287;28;20236;-78
2022/04/15 18:13:53;;;;;;;9.80;4.33;;;4.50;99.90;;;;;;10366332;28;20196;-79
2022/04/15 18:19:15;;;;;;;15.07;5.63;;;4.50;99.90;;;;;;10342997;28;20507;-79
2022/04/15 18:24:37;;;;;;;9.53;5.03;;;4.50;99.90;;;;;;10359121;28;20230;-79
2022/04/15 18:29:58;;;;;;;7.33;3.40;;;4.50;99.90;;;;;;10332852;28;20193;-79
2022/04/15 18:35:21;;;;;;;11.10;4.27;;;4.60;99.90;;;;;;10331683;28;20241;-79
2022/04/15 18:40:42;;;;;;;9.17;4.03;;;4.60;99.90;;;;;;10317012;28;20431;-80
2022/04/15 18:46:04;;;;;;;6.87;3.73;;;4.60;99.90;;;;;;10301749;28;20265;-80
2022/04/15 18:57:06;;;;;;;5.10;2.87;;;4.60;99.90;;;;;;10315267;28;20538;-79
2022/04/15 19:02:27;;;;;;;9.57;3.73;;;4.60;99.90;;;;;;10330824;28;20510;-79
2022/04/15 19:07:49;;;;;;;5.77;3.23;;;4.60;99.90;;;;;;10301518;28;20226;-79
2022/04/15 19:13:12;;;;;;;4.90;3.27;;;4.60;99.90;;;;;;10343357;28;20240;-78
2022/04/15 19:18:34;;;;;;;4.63;3.20;;;4.60;99.90;;;;;;10338557;28;20201;-79
2022/04/15 19:23:55;;;;;;;6.70;3.03;;;4.60;99.90;;;;;;10370952;28;20190;-79
2022/04/15 19:29:16;;;;;;;4.70;2.47;;;4.60;99.90;;;;;;10349130;28;20280;-79
2022/04/15 19:34:37;;;;;;;5.87;2.50;;;4.50;99.90;;;;;;10330083;28;20230;-80
2022/04/15 19:39:58;;;;;;;5.33;2.20;;;4.50;99.90;;;;;;10330295;28;20505;-79
2022/04/15 19:45:20;;;;;;;6.70;1.97;;;4.40;99.90;;;;;;10329921;28;20560;-80
2022/04/15 19:50:44;;;;;;;5.27;1.80;;;4.30;99.90;;;;;;10314064;28;20326;-78
2022/04/15 20:02:05;;;;;;;8.87;2.57;;;4.20;99.90;;;;;;10311136;28;20264;-81
2022/04/15 20:07:27;;;;;;;5.43;3.43;;;4.20;99.90;;;;;;10321669;28;20481;-78
2022/04/15 20:12:49;;;;;;;5.30;2.10;;;4.20;99.90;;;;;;10346118;28;20487;-79
2022/04/15 20:18:12;;;;;;;6.37;2.10;;;4.20;99.90;;;;;;10361216;28;20217;-80
2022/04/15 20:23:33;;;;;;;12.43;4.10;;;4.10;99.90;;;;;;10364007;28;20444;-79
2022/04/15 20:28:55;;;;;;;7.20;3.17;;;4.10;99.90;;;;;;10326720;28;20276;-79
2022/04/15 20:34:16;;;;;;;6.50;2.20;;;4.10;99.90;;;;;;10307069;28;20551;-78
2022/04/15 20:39:38;;;;;;;9.20;3.73;;;4.00;99.90;;;;;;10307340;28;20306;-79
2022/04/15 20:44:59;;;;;;;5.87;2.77;;;4.00;99.90;;;;;;10306531;28;20239;-79
2022/04/15 20:50:20;;;;;;;3.43;1.90;;;4.00;99.90;;;;;;10320247;28;20272;-80
2022/04/15 20:55:42;;;;;;;7.87;3.07;;;4.00;99.90;;;;;;10321076;28;20201;-79
2022/04/15 21:01:04;;;;;;;4.63;2.57;;;4.00;99.90;;;;;;10295442;28;20193;-79
2022/04/15 21:06:25;;;;;;;7.97;2.80;;;4.00;99.90;;;;;;10279760;29;20405;-79
2022/04/15 21:11:46;;;;;;;4.97;2.07;;;4.10;99.90;;;;;;10311528;28;20197;-79
2022/04/15 21:17:09;;;;;;;5.50;2.67;;;4.10;99.90;;;;;;10368056;28;20197;-79
2022/04/15 21:22:31;;;;;;;5.40;2.40;;;4.00;99.90;;;;;;10354675;28;20276;-79
2022/04/15 21:27:53;;;;;;;6.57;2.77;;;4.00;99.90;;;;;;10345071;28;20251;-78
2022/04/15 21:33:14;;;;;;;6.10;2.37;;;4.00;99.90;;;;;;10278823;28;20202;-79
2022/04/15 21:38:40;;;;;;;6.00;2.10;;;4.00;99.90;;;;;;10280609;28;20536;-80
2022/04/15 21:44:02;;;;;;;5.30;2.17;;;4.00;99.90;;;;;;10278927;28;20201;-79
2022/04/15 21:49:24;;;;;;;5.30;2.20;;;4.00;99.90;;;;;;10277668;28;20205;-79
2022/04/15 21:54:45;;;;;;;4.17;1.80;;;4.00;99.90;;;;;;10278659;28;20198;-79
2022/04/15 22:00:10;;;;;;;3.30;1.70;;;4.00;99.90;;;;;;10325380;28;20194;-80
2022/04/15 22:05:34;;;;;;;5.50;2.07;;;4.10;99.90;;;;;;10317175;28;20249;-79
2022/04/15 22:10:56;;;;;;;5.53;2.10;;;4.10;99.90;;;;;;10326556;28;20372;-79
2022/04/15 22:16:17;;;;;;;4.60;2.20;;;4.00;99.90;;;;;;10358954;28;20204;-78
2022/04/15 22:21:39;;;;;;;5.40;2.67;;;4.10;99.90;;;;;;10340399;28;20272;-80
2022/04/15 22:27:01;;;;;;;4.27;2.00;;;4.20;99.90;;;;;;10362771;28;20220;-79
2022/04/15 22:32:22;;;;;;;4.50;1.73;;;4.20;99.90;;;;;;10330397;28;20194;-80
2022/04/15 22:37:46;;;;;;;5.53;2.40;;;4.30;99.90;;;;;;10302174;28;20264;-79
2022/04/15 22:43:08;;;;;;;5.20;2.10;;;4.40;99.90;;;;;;10315778;28;20410;-79
2022/04/15 22:48:30;;;;;;;5.60;2.07;;;4.40;99.90;;;;;;10315465;28;20252;-79
2022/04/15 22:53:51;;;;;;;5.10;1.80;;;4.40;99.90;;;;;;10316413;28;20194;-79
2022/04/15 22:59:13;;;;;;;4.90;2.43;;;4.40;99.90;;;;;;10316088;28;20416;-78
2022/04/15 23:04:35;;;;;;;3.67;2.07;;;4.40;99.90;;;;;;10316388;28;20220;-78
2022/04/15 23:09:56;;;;;;;4.30;1.93;;;4.40;99.90;;;;;;10316322;28;20260;-79
2022/04/15 23:15:18;;;;;;;4.47;1.83;;;4.50;99.90;;;;;;10371426;28;20403;-79
2022/04/15 23:20:40;;;;;;;4.03;2.10;;;4.50;99.90;;;;;;10338836;28;20243;-80
2022/04/15 23:26:03;;;;;;;4.53;1.90;;;4.50;99.90;;;;;;10350248;28;20214;-79
2022/04/15 23:31:25;;;;;;;4.67;1.70;;;4.50;99.90;;;;;;10261485;28;20545;-79
2022/04/15 23:36:47;;;;;;;2.57;1.70;;;4.50;99.90;;;;;;10274806;28;20245;-79
2022/04/15 23:42:10;;;;;;;4.33;1.80;;;4.60;99.90;;;;;;10290286;28;20217;-79
2022/04/15 23:53:12;;;;;;;4.93;2.03;;;4.60;99.90;;;;;;10289772;28;20226;-79
2022/04/15 23:58:34;;;;;;;5.87;2.10;;;4.60;99.90;;;;;;10297217;28;20273;-78
